Terminal Aerodrome Forecast
Issued by NWS

Home | Current Version | Previous Version | Text Only | Print | Product List | Glossary On
Versions: 1 2 3 4 5 6 7 8 9 10 11 12 13 14 15 16 17 18 19 20 21
000
FTUS43 KGRR 011300 AAB
TAFJXN
TAF AMD
KJXN 011342Z 0114/0212 00000KT 3SM BR OVC002
     FM011500 14006KT 5SM BR OVC006
     FM011600 15007KT P6SM OVC015
     FM011800 15007KT P6SM BKN035
     FM012300 14007KT P6SM BKN250=

USA.gov is the U.S. government's official web portal to all federal, state and local government web resources and services.